JA77YD ZZZZ-RJTI
Flight info
| Callsign | JA77YD |
|---|---|
| Flight time | N/A |
| Altitude | 2000 |
| Route | GUNMA HELI KAWAGUCHI KOMATSUGAWA |
| Aircraft | EC30/L-V/N |
Departure
| Time | N/A |
|---|---|
| Airport | ZZZZ |
Arrival
| Time | 2026-05-05 14:24 |
|---|---|
| Airport | Tokyo Heliport (RJTI) |
| Time | Latitude | Longitude | Altitude | Speed | Heading |
|---|---|---|---|---|---|
| 2026-05-05 13:46 | 36.31827 | 139.10762 | 271 ft | 0 kts | 269° |
| 2026-05-05 13:48 | 36.31829 | 139.10762 | 275 ft | 2 kts | 264° |
| 2026-05-05 13:48 | 36.31823 | 139.10758 | 276 ft | 3 kts | 218° |
| 2026-05-05 13:49 | 36.31813 | 139.10717 | 279 ft | 6 kts | 247° |
| 2026-05-05 13:49 | 36.31798 | 139.10684 | 281 ft | 3 kts | 265° |
| 2026-05-05 13:49 | 36.31796 | 139.10666 | 290 ft | 17 kts | 299° |
| 2026-05-05 13:49 | 36.31895 | 139.10370 | 428 ft | 51 kts | 296° |
| 2026-05-05 13:50 | 36.31976 | 139.09884 | 579 ft | 64 kts | 252° |
| 2026-05-05 13:50 | 36.31563 | 139.09684 | 683 ft | 75 kts | 160° |
| 2026-05-05 13:50 | 36.31209 | 139.10150 | 789 ft | 76 kts | 111° |
| 2026-05-05 13:50 | 36.30992 | 139.10686 | 1008 ft | 66 kts | 112° |
| 2026-05-05 13:51 | 36.30790 | 139.11203 | 1170 ft | 69 kts | 117° |
| 2026-05-05 13:51 | 36.30578 | 139.11736 | 1372 ft | 70 kts | 115° |
| 2026-05-05 13:51 | 36.30364 | 139.12298 | 1520 ft | 74 kts | 115° |
| 2026-05-05 13:51 | 36.30139 | 139.12892 | 1792 ft | 78 kts | 115° |
| 2026-05-05 13:52 | 36.29917 | 139.13537 | 2087 ft | 83 kts | 114° |
| 2026-05-05 13:52 | 36.29667 | 139.14192 | 2254 ft | 86 kts | 117° |
| 2026-05-05 13:52 | 36.29413 | 139.14890 | 2371 ft | 99 kts | 118° |
| 2026-05-05 13:52 | 36.29013 | 139.15617 | 2355 ft | 105 kts | 130° |
| 2026-05-05 13:53 | 36.28536 | 139.16331 | 2343 ft | 111 kts | 131° |
| 2026-05-05 13:53 | 36.28030 | 139.17070 | 2337 ft | 111 kts | 131° |
| 2026-05-05 13:53 | 36.27542 | 139.17786 | 2337 ft | 110 kts | 132° |
| 2026-05-05 13:53 | 36.27054 | 139.18507 | 2341 ft | 110 kts | 131° |
| 2026-05-05 13:54 | 36.26561 | 139.19234 | 2340 ft | 110 kts | 131° |
| 2026-05-05 13:54 | 36.26070 | 139.19961 | 2342 ft | 110 kts | 132° |
| 2026-05-05 13:54 | 36.25580 | 139.20688 | 2345 ft | 110 kts | 131° |
| 2026-05-05 13:54 | 36.25091 | 139.21415 | 2339 ft | 110 kts | 131° |
| 2026-05-05 13:55 | 36.24603 | 139.22145 | 2341 ft | 110 kts | 132° |
| 2026-05-05 13:55 | 36.24118 | 139.22872 | 2353 ft | 110 kts | 132° |
| 2026-05-05 13:55 | 36.23632 | 139.23602 | 2340 ft | 110 kts | 132° |
| 2026-05-05 13:55 | 36.23152 | 139.24329 | 2338 ft | 109 kts | 132° |
| 2026-05-05 13:56 | 36.22831 | 139.24819 | 2345 ft | 109 kts | 131° |
| 2026-05-05 13:56 | 36.22207 | 139.25774 | 2346 ft | 107 kts | 132° |
| 2026-05-05 13:56 | 36.21899 | 139.26250 | 2341 ft | 107 kts | 132° |
| 2026-05-05 13:56 | 36.21433 | 139.26972 | 2338 ft | 108 kts | 131° |
| 2026-05-05 13:57 | 36.20961 | 139.27702 | 2344 ft | 110 kts | 132° |
| 2026-05-05 13:57 | 36.20489 | 139.28448 | 2340 ft | 110 kts | 131° |
| 2026-05-05 13:57 | 36.20019 | 139.29195 | 2337 ft | 110 kts | 132° |
| 2026-05-05 13:57 | 36.19549 | 139.29944 | 2334 ft | 110 kts | 131° |
| 2026-05-05 13:58 | 36.19081 | 139.30694 | 2340 ft | 111 kts | 132° |
| 2026-05-05 13:58 | 36.18613 | 139.31449 | 2336 ft | 111 kts | 132° |
| 2026-05-05 13:58 | 36.18144 | 139.32207 | 2337 ft | 111 kts | 131° |
| 2026-05-05 13:58 | 36.17680 | 139.32967 | 2336 ft | 110 kts | 131° |
| 2026-05-05 13:59 | 36.16757 | 139.34490 | 2337 ft | 112 kts | 132° |
| 2026-05-05 13:59 | 36.16293 | 139.35266 | 2341 ft | 113 kts | 132° |
| 2026-05-05 14:00 | 36.15260 | 139.36801 | 2109 ft | 115 kts | 147° |
| 2026-05-05 14:00 | 36.14585 | 139.37266 | 2066 ft | 108 kts | 159° |
| 2026-05-05 14:00 | 36.13897 | 139.37609 | 2053 ft | 105 kts | 162° |
| 2026-05-05 14:00 | 36.13219 | 139.37926 | 2053 ft | 104 kts | 163° |
| 2026-05-05 14:01 | 36.12542 | 139.38247 | 2044 ft | 104 kts | 162° |
| 2026-05-05 14:01 | 36.11871 | 139.38580 | 2046 ft | 104 kts | 161° |
| 2026-05-05 14:01 | 36.11193 | 139.38927 | 2049 ft | 107 kts | 161° |
| 2026-05-05 14:01 | 36.10530 | 139.39269 | 2031 ft | 99 kts | 161° |
| 2026-05-05 14:02 | 36.09898 | 139.39613 | 2063 ft | 102 kts | 160° |
| 2026-05-05 14:02 | 36.09282 | 139.40046 | 2048 ft | 104 kts | 150° |
| 2026-05-05 14:02 | 36.08727 | 139.40656 | 2041 ft | 107 kts | 141° |
| 2026-05-05 14:02 | 36.08228 | 139.41333 | 2041 ft | 108 kts | 139° |
| 2026-05-05 14:03 | 36.07737 | 139.42023 | 2040 ft | 105 kts | 139° |
| 2026-05-05 14:03 | 36.07260 | 139.42701 | 2037 ft | 103 kts | 139° |
| 2026-05-05 14:03 | 36.06805 | 139.43351 | 2042 ft | 99 kts | 139° |
| 2026-05-05 14:03 | 36.06363 | 139.43982 | 2037 ft | 95 kts | 140° |
| 2026-05-05 14:04 | 36.05933 | 139.44612 | 2056 ft | 100 kts | 139° |
| 2026-05-05 14:04 | 36.05460 | 139.45284 | 2046 ft | 105 kts | 139° |
| 2026-05-05 14:04 | 36.04970 | 139.45969 | 2041 ft | 107 kts | 139° |
| 2026-05-05 14:04 | 36.04479 | 139.46651 | 2041 ft | 106 kts | 140° |
| 2026-05-05 14:05 | 36.03998 | 139.47316 | 2040 ft | 104 kts | 140° |
| 2026-05-05 14:05 | 36.03510 | 139.48000 | 2046 ft | 108 kts | 140° |
| 2026-05-05 14:05 | 36.03011 | 139.48708 | 2041 ft | 110 kts | 140° |
| 2026-05-05 14:05 | 36.02504 | 139.49435 | 2031 ft | 109 kts | 139° |
| 2026-05-05 14:06 | 36.02013 | 139.50148 | 2033 ft | 107 kts | 140° |
| 2026-05-05 14:06 | 36.01551 | 139.50820 | 2045 ft | 103 kts | 139° |
| 2026-05-05 14:06 | 36.01097 | 139.51490 | 2037 ft | 101 kts | 140° |
| 2026-05-05 14:06 | 36.00648 | 139.52161 | 2050 ft | 103 kts | 140° |
| 2026-05-05 14:07 | 36.00179 | 139.52833 | 2044 ft | 102 kts | 143° |
| 2026-05-05 14:07 | 35.99656 | 139.53440 | 2046 ft | 104 kts | 149° |
| 2026-05-05 14:07 | 35.99104 | 139.54012 | 2032 ft | 102 kts | 150° |
| 2026-05-05 14:07 | 35.98562 | 139.54566 | 2036 ft | 100 kts | 150° |
| 2026-05-05 14:08 | 35.98036 | 139.55103 | 2036 ft | 97 kts | 150° |
| 2026-05-05 14:08 | 35.97518 | 139.55649 | 2045 ft | 98 kts | 150° |
| 2026-05-05 14:08 | 35.96994 | 139.56215 | 2050 ft | 100 kts | 148° |
| 2026-05-05 14:08 | 35.96464 | 139.56770 | 2036 ft | 99 kts | 149° |
| 2026-05-05 14:09 | 35.95944 | 139.57310 | 2034 ft | 97 kts | 149° |
| 2026-05-05 14:09 | 35.95427 | 139.57851 | 2041 ft | 97 kts | 149° |
| 2026-05-05 14:09 | 35.94918 | 139.58388 | 2043 ft | 97 kts | 150° |
| 2026-05-05 14:09 | 35.94399 | 139.58935 | 2040 ft | 98 kts | 149° |
| 2026-05-05 14:10 | 35.93920 | 139.59448 | 2038 ft | 94 kts | 149° |
| 2026-05-05 14:10 | 35.93426 | 139.59989 | 2045 ft | 96 kts | 149° |
| 2026-05-05 14:10 | 35.92925 | 139.60540 | 2041 ft | 97 kts | 149° |
| 2026-05-05 14:10 | 35.92418 | 139.61095 | 2040 ft | 97 kts | 149° |
| 2026-05-05 14:11 | 35.91919 | 139.61644 | 2040 ft | 96 kts | 149° |
| 2026-05-05 14:11 | 35.91419 | 139.62198 | 2042 ft | 97 kts | 149° |
| 2026-05-05 14:11 | 35.90915 | 139.62752 | 2037 ft | 98 kts | 149° |
| 2026-05-05 14:11 | 35.90399 | 139.63310 | 2044 ft | 99 kts | 149° |
| 2026-05-05 14:12 | 35.89886 | 139.63874 | 2041 ft | 99 kts | 149° |
| 2026-05-05 14:12 | 35.89380 | 139.64437 | 2042 ft | 98 kts | 149° |
| 2026-05-05 14:12 | 35.88889 | 139.64993 | 2039 ft | 96 kts | 149° |
| 2026-05-05 14:12 | 35.88398 | 139.65544 | 2043 ft | 96 kts | 149° |
| 2026-05-05 14:13 | 35.87902 | 139.66095 | 2038 ft | 95 kts | 149° |
| 2026-05-05 14:13 | 35.87411 | 139.66637 | 2041 ft | 94 kts | 149° |
| 2026-05-05 14:13 | 35.86921 | 139.67182 | 2043 ft | 97 kts | 149° |
| 2026-05-05 14:13 | 35.86408 | 139.67745 | 2040 ft | 100 kts | 149° |
| 2026-05-05 14:14 | 35.85890 | 139.68315 | 2035 ft | 100 kts | 150° |
| 2026-05-05 14:14 | 35.85385 | 139.68885 | 2041 ft | 97 kts | 150° |
| 2026-05-05 14:14 | 35.84873 | 139.69426 | 2040 ft | 97 kts | 150° |
| 2026-05-05 14:14 | 35.84349 | 139.69966 | 2031 ft | 98 kts | 151° |
| 2026-05-05 14:15 | 35.83817 | 139.70495 | 2030 ft | 98 kts | 151° |
| 2026-05-05 14:15 | 35.83280 | 139.71012 | 2030 ft | 97 kts | 152° |
| 2026-05-05 14:15 | 35.82746 | 139.71514 | 2032 ft | 96 kts | 152° |
| 2026-05-05 14:15 | 35.82216 | 139.72004 | 2030 ft | 95 kts | 152° |
| 2026-05-05 14:16 | 35.81684 | 139.72481 | 2004 ft | 98 kts | 153° |
| 2026-05-05 14:16 | 35.81100 | 139.72976 | 1833 ft | 106 kts | 152° |
| 2026-05-05 14:16 | 35.80513 | 139.73538 | 1703 ft | 107 kts | 150° |
| 2026-05-05 14:16 | 35.79904 | 139.74097 | 1537 ft | 110 kts | 150° |
| 2026-05-05 14:17 | 35.79284 | 139.74639 | 1448 ft | 106 kts | 148° |
| 2026-05-05 14:17 | 35.78732 | 139.75184 | 1459 ft | 101 kts | 148° |
| 2026-05-05 14:17 | 35.78186 | 139.75714 | 1472 ft | 99 kts | 149° |
| 2026-05-05 14:17 | 35.77633 | 139.76226 | 1415 ft | 103 kts | 149° |
| 2026-05-05 14:18 | 35.77039 | 139.76797 | 1161 ft | 114 kts | 142° |
| 2026-05-05 14:18 | 35.76560 | 139.77601 | 968 ft | 120 kts | 121° |
| 2026-05-05 14:18 | 35.76347 | 139.78615 | 843 ft | 123 kts | 105° |
| 2026-05-05 14:18 | 35.76126 | 139.79573 | 854 ft | 112 kts | 120° |
| 2026-05-05 14:19 | 35.75782 | 139.80411 | 863 ft | 108 kts | 127° |
| 2026-05-05 14:19 | 35.75325 | 139.81134 | 867 ft | 107 kts | 138° |
| 2026-05-05 14:19 | 35.74798 | 139.81769 | 860 ft | 105 kts | 142° |
| 2026-05-05 14:19 | 35.74254 | 139.82330 | 831 ft | 99 kts | 149° |
| 2026-05-05 14:20 | 35.73711 | 139.82788 | 846 ft | 90 kts | 152° |
| 2026-05-05 14:20 | 35.73198 | 139.83213 | 871 ft | 89 kts | 152° |
| 2026-05-05 14:20 | 35.72693 | 139.83656 | 869 ft | 91 kts | 147° |
| 2026-05-05 14:20 | 35.72226 | 139.84178 | 862 ft | 90 kts | 143° |
| 2026-05-05 14:21 | 35.71776 | 139.84715 | 851 ft | 89 kts | 143° |
| 2026-05-05 14:21 | 35.71288 | 139.85165 | 866 ft | 87 kts | 153° |
| 2026-05-05 14:21 | 35.70756 | 139.85528 | 858 ft | 87 kts | 161° |
| 2026-05-05 14:21 | 35.70183 | 139.85727 | 859 ft | 85 kts | 174° |
| 2026-05-05 14:22 | 35.69596 | 139.85724 | 856 ft | 84 kts | 187° |
| 2026-05-05 14:22 | 35.69029 | 139.85589 | 848 ft | 79 kts | 196° |
| 2026-05-05 14:22 | 35.68535 | 139.85339 | 777 ft | 77 kts | 204° |
| 2026-05-05 14:22 | 35.68036 | 139.85070 | 698 ft | 77 kts | 201° |
| 2026-05-05 14:23 | 35.67535 | 139.84897 | 685 ft | 73 kts | 193° |
| 2026-05-05 14:23 | 35.67045 | 139.84801 | 684 ft | 69 kts | 192° |
| 2026-05-05 14:23 | 35.66591 | 139.84714 | 638 ft | 64 kts | 194° |
| 2026-05-05 14:23 | 35.66175 | 139.84609 | 630 ft | 58 kts | 196° |
| 2026-05-05 14:24 | 35.65787 | 139.84466 | 576 ft | 60 kts | 202° |
| 2026-05-05 14:24 | 35.65387 | 139.84286 | 454 ft | 61 kts | 206° |
| 2026-05-05 14:24 | 35.65004 | 139.84141 | 388 ft | 53 kts | 195° |
| 2026-05-05 14:24 | 35.64681 | 139.84056 | 328 ft | 45 kts | 184° |
| 2026-05-05 14:25 | 35.64367 | 139.84024 | 288 ft | 45 kts | 181° |
| 2026-05-05 14:25 | 35.64059 | 139.83986 | 200 ft | 41 kts | 177° |
| 2026-05-05 14:25 | 35.63801 | 139.83958 | 117 ft | 33 kts | 178° |
| 2026-05-05 14:25 | 35.63633 | 139.83950 | 46 ft | 15 kts | 171° |
| 2026-05-05 14:26 | 35.63575 | 139.83944 | 28 ft | 7 kts | 198° |
| 2026-05-05 14:26 | 35.63559 | 139.83880 | 29 ft | 8 kts | 258° |
| 2026-05-05 14:26 | 35.63576 | 139.83835 | 27 ft | 6 kts | 273° |
| 2026-05-05 14:26 | 35.63593 | 139.83807 | 25 ft | 3 kts | 195° |
| 2026-05-05 14:27 | 35.63587 | 139.83803 | 22 ft | 0 kts | 179° |